sensor_id;sensor_type;location;lat;lon;timestamp;temperature;humidity
71177;DHT22;58877;51.992;4.504;2022-11-15T00:01:53;9.01;85.66
71177;DHT22;58877;51.992;4.504;2022-11-15T00:04:19;9.04;85.68
71177;DHT22;58877;51.992;4.504;2022-11-15T00:06:45;9.07;85.65
71177;DHT22;58877;51.992;4.504;2022-11-15T00:09:11;9.08;85.68
71177;DHT22;58877;51.992;4.504;2022-11-15T00:11:36;9.08;85.76
71177;DHT22;58877;51.992;4.504;2022-11-15T00:14:02;9.11;85.77
71177;DHT22;58877;51.992;4.504;2022-11-15T00:16:28;9.12;85.85
71177;DHT22;58877;51.992;4.504;2022-11-15T00:18:54;9.11;85.92
71177;DHT22;58877;51.992;4.504;2022-11-15T00:21:19;9.11;86.12
71177;DHT22;58877;51.992;4.504;2022-11-15T00:23:45;9.12;86.26
71177;DHT22;58877;51.992;4.504;2022-11-15T00:26:15;9.14;86.35
71177;DHT22;58877;51.992;4.504;2022-11-15T00:28:41;9.20;86.27
71177;DHT22;58877;51.992;4.504;2022-11-15T00:31:13;9.21;86.26
71177;DHT22;58877;51.992;4.504;2022-11-15T00:33:40;9.27;86.29
71177;DHT22;58877;51.992;4.504;2022-11-15T00:36:09;9.31;86.20
71177;DHT22;58877;51.992;4.504;2022-11-15T00:38:38;9.30;86.24
71177;DHT22;58877;51.992;4.504;2022-11-15T00:41:06;9.31;86.17
71177;DHT22;58877;51.992;4.504;2022-11-15T00:43:36;9.30;86.33
71177;DHT22;58877;51.992;4.504;2022-11-15T00:46:01;9.32;86.41
71177;DHT22;58877;51.992;4.504;2022-11-15T00:48:28;9.31;86.52
71177;DHT22;58877;51.992;4.504;2022-11-15T00:50:57;9.31;86.54
71177;DHT22;58877;51.992;4.504;2022-11-15T00:53:22;9.31;86.61
71177;DHT22;58877;51.992;4.504;2022-11-15T00:55:48;9.31;86.70
71177;DHT22;58877;51.992;4.504;2022-11-15T00:58:13;9.31;86.82
71177;DHT22;58877;51.992;4.504;2022-11-15T01:00:39;9.28;86.99
71177;DHT22;58877;51.992;4.504;2022-11-15T01:03:05;9.34;87.07
71177;DHT22;58877;51.992;4.504;2022-11-15T01:05:30;9.39;87.06
71177;DHT22;58877;51.992;4.504;2022-11-15T01:07:56;9.46;86.92
71177;DHT22;58877;51.992;4.504;2022-11-15T01:10:22;9.52;86.84
71177;DHT22;58877;51.992;4.504;2022-11-15T01:12:48;9.52;86.73
71177;DHT22;58877;51.992;4.504;2022-11-15T01:15:14;9.55;86.80
71177;DHT22;58877;51.992;4.504;2022-11-15T01:17:40;9.62;86.76
71177;DHT22;58877;51.992;4.504;2022-11-15T01:20:06;9.61;86.63
71177;DHT22;58877;51.992;4.504;2022-11-15T01:22:41;9.63;86.74
71177;DHT22;58877;51.992;4.504;2022-11-15T01:25:06;9.63;86.62
71177;DHT22;58877;51.992;4.504;2022-11-15T01:27:32;9.65;86.69
71177;DHT22;58877;51.992;4.504;2022-11-15T01:29:57;9.66;86.85
71177;DHT22;58877;51.992;4.504;2022-11-15T01:32:23;9.63;87.05
71177;DHT22;58877;51.992;4.504;2022-11-15T01:34:48;9.66;87.15
71177;DHT22;58877;51.992;4.504;2022-11-15T01:37:14;9.66;87.16
71177;DHT22;58877;51.992;4.504;2022-11-15T01:39:39;9.72;87.16
71177;DHT22;58877;51.992;4.504;2022-11-15T01:42:05;9.76;87.11
71177;DHT22;58877;51.992;4.504;2022-11-15T01:44:42;9.74;87.28
71177;DHT22;58877;51.992;4.504;2022-11-15T01:47:15;9.79;87.46
71177;DHT22;58877;51.992;4.504;2022-11-15T01:50:04;9.83;87.45
71177;DHT22;58877;51.992;4.504;2022-11-15T01:52:34;9.86;87.54
71177;DHT22;58877;51.992;4.504;2022-11-15T01:55:09;9.85;87.66
71177;DHT22;58877;51.992;4.504;2022-11-15T01:57:37;9.93;87.55
71177;DHT22;58877;51.992;4.504;2022-11-15T02:00:05;9.93;87.54
71177;DHT22;58877;51.992;4.504;2022-11-15T02:02:32;9.99;87.62
71177;DHT22;58877;51.992;4.504;2022-11-15T02:04:59;10.06;87.78
71177;DHT22;58877;51.992;4.504;2022-11-15T02:07:25;10.06;87.73
71177;DHT22;58877;51.992;4.504;2022-11-15T02:09:51;10.10;87.87
71177;DHT22;58877;51.992;4.504;2022-11-15T02:12:20;10.14;87.88
71177;DHT22;58877;51.992;4.504;2022-11-15T02:14:51;10.20;87.76
71177;DHT22;58877;51.992;4.504;2022-11-15T02:17:25;10.24;87.75
71177;DHT22;58877;51.992;4.504;2022-11-15T02:20:20;10.26;87.63
71177;DHT22;58877;51.992;4.504;2022-11-15T02:23:11;10.23;87.81
71177;DHT22;58877;51.992;4.504;2022-11-15T02:41:57;10.63;87.94
71177;DHT22;58877;51.992;4.504;2022-11-15T02:44:38;10.67;87.99
71177;DHT22;58877;51.992;4.504;2022-11-15T02:47:12;10.65;87.95
71177;DHT22;58877;51.992;4.504;2022-11-15T02:49:43;10.70;88.08
71177;DHT22;58877;51.992;4.504;2022-11-15T02:52:15;10.78;87.97
71177;DHT22;58877;51.992;4.504;2022-11-15T02:54:41;10.85;87.99
71177;DHT22;58877;51.992;4.504;2022-11-15T02:57:14;10.90;88.07
71177;DHT22;58877;51.992;4.504;2022-11-15T02:59:47;11.02;87.92
71177;DHT22;58877;51.992;4.504;2022-11-15T03:02:32;11.04;88.05
71177;DHT22;58877;51.992;4.504;2022-11-15T03:08:22;11.21;88.05
71177;DHT22;58877;51.992;4.504;2022-11-15T03:10:55;11.24;87.93
71177;DHT22;58877;51.992;4.504;2022-11-15T03:18:46;11.49;88.21
71177;DHT22;58877;51.992;4.504;2022-11-15T03:21:19;11.46;88.42
71177;DHT22;58877;51.992;4.504;2022-11-15T03:23:48;11.56;88.41
71177;DHT22;58877;51.992;4.504;2022-11-15T03:26:19;11.59;88.25
71177;DHT22;58877;51.992;4.504;2022-11-15T03:28:55;11.63;88.26
71177;DHT22;58877;51.992;4.504;2022-11-15T03:31:28;11.69;88.15
71177;DHT22;58877;51.992;4.504;2022-11-15T03:34:34;11.76;88.07
71177;DHT22;58877;51.992;4.504;2022-11-15T03:37:01;11.79;87.83
71177;DHT22;58877;51.992;4.504;2022-11-15T03:39:28;11.83;87.98
71177;DHT22;58877;51.992;4.504;2022-11-15T03:45:23;11.89;87.81
71177;DHT22;58877;51.992;4.504;2022-11-15T03:48:01;11.89;87.66
71177;DHT22;58877;51.992;4.504;2022-11-15T03:50:29;11.94;87.58
71177;DHT22;58877;51.992;4.504;2022-11-15T03:52:57;11.96;87.58
71177;DHT22;58877;51.992;4.504;2022-11-15T03:55:24;11.94;87.41
71177;DHT22;58877;51.992;4.504;2022-11-15T03:57:54;11.96;87.34
71177;DHT22;58877;51.992;4.504;2022-11-15T04:00:22;11.99;87.23
71177;DHT22;58877;51.992;4.504;2022-11-15T04:02:47;11.99;87.24
71177;DHT22;58877;51.992;4.504;2022-11-15T04:05:13;12.00;87.27
71177;DHT22;58877;51.992;4.504;2022-11-15T04:07:39;12.00;87.31
71177;DHT22;58877;51.992;4.504;2022-11-15T04:10:04;11.96;87.50
71177;DHT22;58877;51.992;4.504;2022-11-15T04:12:38;12.03;87.48
71177;DHT22;58877;51.992;4.504;2022-11-15T04:15:08;12.06;87.47
71177;DHT22;58877;51.992;4.504;2022-11-15T04:17:36;12.06;87.60
71177;DHT22;58877;51.992;4.504;2022-11-15T04:20:22;12.13;87.42
71177;DHT22;58877;51.992;4.504;2022-11-15T04:26:05;12.12;87.49
71177;DHT22;58877;51.992;4.504;2022-11-15T04:28:33;12.10;87.36
71177;DHT22;58877;51.992;4.504;2022-11-15T04:30:58;12.16;87.45
71177;DHT22;58877;51.992;4.504;2022-11-15T04:33:24;12.20;87.34
71177;DHT22;58877;51.992;4.504;2022-11-15T04:35:51;12.20;87.24
71177;DHT22;58877;51.992;4.504;2022-11-15T04:38:36;12.23;87.08
71177;DHT22;58877;51.992;4.504;2022-11-15T04:41:01;12.23;87.04
71177;DHT22;58877;51.992;4.504;2022-11-15T04:43:29;12.21;87.23
71177;DHT22;58877;51.992;4.504;2022-11-15T04:45:54;12.14;87.29
71177;DHT22;58877;51.992;4.504;2022-11-15T04:48:20;12.13;87.19
71177;DHT22;58877;51.992;4.504;2022-11-15T04:50:48;12.14;87.22
71177;DHT22;58877;51.992;4.504;2022-11-15T04:53:13;12.14;87.03
71177;DHT22;58877;51.992;4.504;2022-11-15T04:55:39;12.09;87.11
71177;DHT22;58877;51.992;4.504;2022-11-15T04:58:04;12.10;87.33
71177;DHT22;58877;51.992;4.504;2022-11-15T05:00:30;12.12;87.39
71177;DHT22;58877;51.992;4.504;2022-11-15T05:02:56;12.13;87.19
71177;DHT22;58877;51.992;4.504;2022-11-15T05:05:42;12.13;87.21
71177;DHT22;58877;51.992;4.504;2022-11-15T05:08:07;12.14;87.33
71177;DHT22;58877;51.992;4.504;2022-11-15T05:10:33;12.16;86.96
71177;DHT22;58877;51.992;4.504;2022-11-15T05:12:59;12.09;87.08
71177;DHT22;58877;51.992;4.504;2022-11-15T05:15:24;12.06;87.35
71177;DHT22;58877;51.992;4.504;2022-11-15T05:17:58;12.07;87.33
71177;DHT22;58877;51.992;4.504;2022-11-15T05:20:24;12.14;87.07
71177;DHT22;58877;51.992;4.504;2022-11-15T05:22:50;12.16;87.02
71177;DHT22;58877;51.992;4.504;2022-11-15T05:25:15;12.14;86.97
71177;DHT22;58877;51.992;4.504;2022-11-15T05:27:41;12.17;86.99
71177;DHT22;58877;51.992;4.504;2022-11-15T05:30:08;12.23;86.76
71177;DHT22;58877;51.992;4.504;2022-11-15T05:32:34;12.19;86.85
71177;DHT22;58877;51.992;4.504;2022-11-15T05:34:59;12.21;86.66
71177;DHT22;58877;51.992;4.504;2022-11-15T05:37:24;12.20;86.38
71177;DHT22;58877;51.992;4.504;2022-11-15T05:39:50;12.14;86.48
71177;DHT22;58877;51.992;4.504;2022-11-15T05:42:16;12.13;86.49
71177;DHT22;58877;51.992;4.504;2022-11-15T05:44:47;12.14;86.46
71177;DHT22;58877;51.992;4.504;2022-11-15T05:47:21;12.16;86.27
71177;DHT22;58877;51.992;4.504;2022-11-15T05:49:53;12.13;86.31
71177;DHT22;58877;51.992;4.504;2022-11-15T05:52:25;12.12;86.24
71177;DHT22;58877;51.992;4.504;2022-11-15T05:54:55;12.12;86.24
71177;DHT22;58877;51.992;4.504;2022-11-15T05:57:25;12.13;86.16
71177;DHT22;58877;51.992;4.504;2022-11-15T05:59:51;12.13;86.05
71177;DHT22;58877;51.992;4.504;2022-11-15T06:02:17;12.13;86.00
71177;DHT22;58877;51.992;4.504;2022-11-15T06:04:42;12.09;85.93
71177;DHT22;58877;51.992;4.504;2022-11-15T06:07:08;11.99;86.00
71177;DHT22;58877;51.992;4.504;2022-11-15T06:09:33;11.99;86.00
71177;DHT22;58877;51.992;4.504;2022-11-15T06:11:59;11.93;85.94
71177;DHT22;58877;51.992;4.504;2022-11-15T06:14:24;11.87;85.91
71177;DHT22;58877;51.992;4.504;2022-11-15T06:16:50;11.87;85.90
71177;DHT22;58877;51.992;4.504;2022-11-15T06:19:16;11.83;85.85
71177;DHT22;58877;51.992;4.504;2022-11-15T06:21:42;11.80;85.82
71177;DHT22;58877;51.992;4.504;2022-11-15T06:24:07;11.85;85.56
71177;DHT22;58877;51.992;4.504;2022-11-15T06:26:33;11.83;85.45
71177;DHT22;58877;51.992;4.504;2022-11-15T06:28:59;11.76;85.40
71177;DHT22;58877;51.992;4.504;2022-11-15T06:31:25;11.67;85.49
71177;DHT22;58877;51.992;4.504;2022-11-15T06:33:50;11.66;85.66
71177;DHT22;58877;51.992;4.504;2022-11-15T06:36:16;11.65;85.45
71177;DHT22;58877;51.992;4.504;2022-11-15T06:38:43;11.56;85.65
71177;DHT22;58877;51.992;4.504;2022-11-15T06:41:11;11.51;85.68
71177;DHT22;58877;51.992;4.504;2022-11-15T06:43:39;11.52;85.58
71177;DHT22;58877;51.992;4.504;2022-11-15T06:46:06;11.54;85.49
71177;DHT22;58877;51.992;4.504;2022-11-15T06:48:33;11.52;85.33
71177;DHT22;58877;51.992;4.504;2022-11-15T06:51:00;11.45;85.45
71177;DHT22;58877;51.992;4.504;2022-11-15T06:53:27;11.46;85.30
71177;DHT22;58877;51.992;4.504;2022-11-15T06:55:53;11.56;85.02
71177;DHT22;58877;51.992;4.504;2022-11-15T06:58:23;11.55;84.89
71177;DHT22;58877;51.992;4.504;2022-11-15T07:00:48;11.52;85.06
71177;DHT22;58877;51.992;4.504;2022-11-15T07:03:14;11.55;85.03
71177;DHT22;58877;51.992;4.504;2022-11-15T07:05:39;11.59;84.70
71177;DHT22;58877;51.992;4.504;2022-11-15T07:08:05;11.59;84.71
71177;DHT22;58877;51.992;4.504;2022-11-15T07:10:30;11.62;84.65
71177;DHT22;58877;51.992;4.504;2022-11-15T07:12:56;11.58;84.41
71177;DHT22;58877;51.992;4.504;2022-11-15T07:15:25;11.59;84.28
71177;DHT22;58877;51.992;4.504;2022-11-15T07:17:51;11.56;84.04
71177;DHT22;58877;51.992;4.504;2022-11-15T07:20:20;11.51;84.22
71177;DHT22;58877;51.992;4.504;2022-11-15T07:22:45;11.55;84.09
71177;DHT22;58877;51.992;4.504;2022-11-15T07:25:11;11.61;83.92
71177;DHT22;58877;51.992;4.504;2022-11-15T07:27:37;11.69;83.59
71177;DHT22;58877;51.992;4.504;2022-11-15T07:30:07;11.69;83.61
71177;DHT22;58877;51.992;4.504;2022-11-15T07:32:32;11.72;83.34
71177;DHT22;58877;51.992;4.504;2022-11-15T07:34:59;11.72;83.12
71177;DHT22;58877;51.992;4.504;2022-11-15T07:37:25;11.67;83.14
71177;DHT22;58877;51.992;4.504;2022-11-15T07:39:50;11.65;83.21
71177;DHT22;58877;51.992;4.504;2022-11-15T07:42:15;11.67;83.12
71177;DHT22;58877;51.992;4.504;2022-11-15T07:45:00;11.63;83.14
71177;DHT22;58877;51.992;4.504;2022-11-15T07:47:28;11.66;83.15
71177;DHT22;58877;51.992;4.504;2022-11-15T07:49:54;11.61;83.14
71177;DHT22;58877;51.992;4.504;2022-11-15T07:52:20;11.58;83.27
71177;DHT22;58877;51.992;4.504;2022-11-15T07:54:48;11.55;83.43
71177;DHT22;58877;51.992;4.504;2022-11-15T07:57:14;11.56;83.16
71177;DHT22;58877;51.992;4.504;2022-11-15T07:59:39;11.55;83.05
71177;DHT22;58877;51.992;4.504;2022-11-15T08:02:05;11.48;83.18
71177;DHT22;58877;51.992;4.504;2022-11-15T08:04:31;11.43;83.36
71177;DHT22;58877;51.992;4.504;2022-11-15T08:06:56;11.40;83.47
71177;DHT22;58877;51.992;4.504;2022-11-15T08:09:22;11.42;83.61
71177;DHT22;58877;51.992;4.504;2022-11-15T08:11:48;11.51;83.38
71177;DHT22;58877;51.992;4.504;2022-11-15T08:14:14;11.54;83.31
71177;DHT22;58877;51.992;4.504;2022-11-15T08:16:40;11.58;83.15
71177;DHT22;58877;51.992;4.504;2022-11-15T08:19:08;11.58;83.10
71177;DHT22;58877;51.992;4.504;2022-11-15T08:21:34;11.63;83.12
71177;DHT22;58877;51.992;4.504;2022-11-15T08:24:03;11.62;83.23
71177;DHT22;58877;51.992;4.504;2022-11-15T08:26:29;11.63;83.37
71177;DHT22;58877;51.992;4.504;2022-11-15T08:28:55;11.76;83.21
71177;DHT22;58877;51.992;4.504;2022-11-15T08:31:21;11.76;83.00
71177;DHT22;58877;51.992;4.504;2022-11-15T08:33:46;11.79;82.89
71177;DHT22;58877;51.992;4.504;2022-11-15T08:36:17;11.82;82.84
71177;DHT22;58877;51.992;4.504;2022-11-15T08:38:42;11.80;82.76
71177;DHT22;58877;51.992;4.504;2022-11-15T08:41:33;11.79;82.76
71177;DHT22;58877;51.992;4.504;2022-11-15T08:44:03;11.76;82.85
71177;DHT22;58877;51.992;4.504;2022-11-15T08:46:33;11.69;82.96
71177;DHT22;58877;51.992;4.504;2022-11-15T08:48:59;11.72;82.78
71177;DHT22;58877;51.992;4.504;2022-11-15T08:51:27;11.83;82.55
71177;DHT22;58877;51.992;4.504;2022-11-15T08:53:53;11.72;82.47
71177;DHT22;58877;51.992;4.504;2022-11-15T08:56:18;11.76;82.29
71177;DHT22;58877;51.992;4.504;2022-11-15T08:58:44;11.80;82.10
71177;DHT22;58877;51.992;4.504;2022-11-15T09:01:18;11.90;81.81
71177;DHT22;58877;51.992;4.504;2022-11-15T09:03:44;11.87;81.57
71177;DHT22;58877;51.992;4.504;2022-11-15T09:06:10;11.89;81.52
71177;DHT22;58877;51.992;4.504;2022-11-15T09:08:35;11.97;81.05
71177;DHT22;58877;51.992;4.504;2022-11-15T09:11:06;12.04;80.87
71177;DHT22;58877;51.992;4.504;2022-11-15T09:13:33;12.10;80.75
71177;DHT22;58877;51.992;4.504;2022-11-15T09:16:03;12.10;80.51
71177;DHT22;58877;51.992;4.504;2022-11-15T09:18:30;12.06;80.51
71177;DHT22;58877;51.992;4.504;2022-11-15T09:21:02;12.04;80.51
71177;DHT22;58877;51.992;4.504;2022-11-15T09:23:28;12.04;80.50
71177;DHT22;58877;51.992;4.504;2022-11-15T09:26:04;12.10;80.12
71177;DHT22;58877;51.992;4.504;2022-11-15T09:28:32;12.12;80.14
71177;DHT22;58877;51.992;4.504;2022-11-15T09:31:03;12.29;79.92
71177;DHT22;58877;51.992;4.504;2022-11-15T09:33:30;12.41;79.51
71177;DHT22;58877;51.992;4.504;2022-11-15T09:36:03;12.45;78.96
71177;DHT22;58877;51.992;4.504;2022-11-15T09:38:30;12.50;78.98
71177;DHT22;58877;51.992;4.504;2022-11-15T09:46:53;12.55;78.32
71177;DHT22;58877;51.992;4.504;2022-11-15T09:49:21;12.58;78.14
71177;DHT22;58877;51.992;4.504;2022-11-15T09:51:50;12.57;77.78
71177;DHT22;58877;51.992;4.504;2022-11-15T09:54:38;12.47;77.71
71177;DHT22;58877;51.992;4.504;2022-11-15T09:57:14;12.57;77.70
71177;DHT22;58877;51.992;4.504;2022-11-15T10:05:23;12.61;76.84
71177;DHT22;58877;51.992;4.504;2022-11-15T10:08:30;12.64;76.65
71177;DHT22;58877;51.992;4.504;2022-11-15T10:11:13;12.63;76.57
71177;DHT22;58877;51.992;4.504;2022-11-15T10:13:44;12.65;76.15
71177;DHT22;58877;51.992;4.504;2022-11-15T10:16:15;12.65;76.01
71177;DHT22;58877;51.992;4.504;2022-11-15T10:19:15;12.67;76.26
71177;DHT22;58877;51.992;4.504;2022-11-15T10:24:26;12.87;76.03
71177;DHT22;58877;51.992;4.504;2022-11-15T10:26:54;12.87;75.90
71177;DHT22;58877;51.992;4.504;2022-11-15T10:29:21;12.96;75.03
71177;DHT22;58877;51.992;4.504;2022-11-15T10:31:47;13.06;75.06
71177;DHT22;58877;51.992;4.504;2022-11-15T10:34:22;13.16;74.52
71177;DHT22;58877;51.992;4.504;2022-11-15T10:36:59;13.28;74.59
71177;DHT22;58877;51.992;4.504;2022-11-15T10:39:26;13.28;74.11
71177;DHT22;58877;51.992;4.504;2022-11-15T10:41:52;13.20;74.02
71177;DHT22;58877;51.992;4.504;2022-11-15T10:44:44;13.18;74.31
71177;DHT22;58877;51.992;4.504;2022-11-15T10:47:29;13.20;74.31
71177;DHT22;58877;51.992;4.504;2022-11-15T10:49:59;13.19;74.06
71177;DHT22;58877;51.992;4.504;2022-11-15T10:52:25;13.11;74.15
71177;DHT22;58877;51.992;4.504;2022-11-15T10:55:01;13.02;74.24
71177;DHT22;58877;51.992;4.504;2022-11-15T10:57:35;13.04;74.13
71177;DHT22;58877;51.992;4.504;2022-11-15T11:00:06;13.16;74.07
71177;DHT22;58877;51.992;4.504;2022-11-15T11:02:45;13.20;73.93
71177;DHT22;58877;51.992;4.504;2022-11-15T11:05:31;13.16;73.93
71177;DHT22;58877;51.992;4.504;2022-11-15T11:10:33;13.23;73.64
71177;DHT22;58877;51.992;4.504;2022-11-15T11:13:13;13.32;73.12
71177;DHT22;58877;51.992;4.504;2022-11-15T11:15:43;13.35;72.74
71177;DHT22;58877;51.992;4.504;2022-11-15T11:18:27;13.42;72.39
71177;DHT22;58877;51.992;4.504;2022-11-15T11:21:00;13.56;72.41
71177;DHT22;58877;51.992;4.504;2022-11-15T11:23:59;13.60;71.74
71177;DHT22;58877;51.992;4.504;2022-11-15T11:26:54;13.56;71.76
71177;DHT22;58877;51.992;4.504;2022-11-15T11:35:29;13.55;71.35
71177;DHT22;58877;51.992;4.504;2022-11-15T11:38:17;13.70;71.32
71177;DHT22;58877;51.992;4.504;2022-11-15T11:41:14;13.73;70.90
71177;DHT22;58877;51.992;4.504;2022-11-15T11:43:53;13.71;71.08
71177;DHT22;58877;51.992;4.504;2022-11-15T11:46:47;13.65;70.83
71177;DHT22;58877;51.992;4.504;2022-11-15T11:49:51;13.60;71.30
71177;DHT22;58877;51.992;4.504;2022-11-15T11:52:42;13.70;71.04
71177;DHT22;58877;51.992;4.504;2022-11-15T11:55:58;13.71;71.09
71177;DHT22;58877;51.992;4.504;2022-11-15T11:58:21;13.80;70.98
71177;DHT22;58877;51.992;4.504;2022-11-15T12:01:01;13.83;70.42
71177;DHT22;58877;51.992;4.504;2022-11-15T12:03:57;13.77;70.33
71177;DHT22;58877;51.992;4.504;2022-11-15T12:09:32;14.01;69.76
71177;DHT22;58877;51.992;4.504;2022-11-15T12:14:30;14.20;69.40
71177;DHT22;58877;51.992;4.504;2022-11-15T12:16:58;14.23;68.90
71177;DHT22;58877;51.992;4.504;2022-11-15T12:19:25;14.10;68.57
71177;DHT22;58877;51.992;4.504;2022-11-15T12:22:16;14.17;68.39
71177;DHT22;58877;51.992;4.504;2022-11-15T12:24:56;14.37;68.23
71177;DHT22;58877;51.992;4.504;2022-11-15T12:27:53;14.27;67.97
71177;DHT22;58877;51.992;4.504;2022-11-15T12:30:36;14.23;67.75
71177;DHT22;58877;51.992;4.504;2022-11-15T12:33:03;14.34;68.01
71177;DHT22;58877;51.992;4.504;2022-11-15T12:35:44;14.28;67.57
71177;DHT22;58877;51.992;4.504;2022-11-15T12:38:51;14.41;67.48
71177;DHT22;58877;51.992;4.504;2022-11-15T12:41:20;14.42;67.13
71177;DHT22;58877;51.992;4.504;2022-11-15T12:43:48;14.35;67.03
71177;DHT22;58877;51.992;4.504;2022-11-15T12:48:56;14.30;67.46
71177;DHT22;58877;51.992;4.504;2022-11-15T12:59:55;14.07;67.20
71177;DHT22;58877;51.992;4.504;2022-11-15T13:17:52;14.04;66.35
71177;DHT22;58877;51.992;4.504;2022-11-15T13:20:29;14.04;66.49
71177;DHT22;58877;51.992;4.504;2022-11-15T13:23:07;14.01;66.44
71177;DHT22;58877;51.992;4.504;2022-11-15T13:30:51;13.93;65.59
71177;DHT22;58877;51.992;4.504;2022-11-15T13:33:25;13.87;65.63
71177;DHT22;58877;51.992;4.504;2022-11-15T13:36:06;13.70;65.52
71177;DHT22;58877;51.992;4.504;2022-11-15T13:38:40;13.67;65.37
71177;DHT22;58877;51.992;4.504;2022-11-15T13:41:32;13.76;65.63
71177;DHT22;58877;51.992;4.504;2022-11-15T13:44:00;13.73;65.82
71177;DHT22;58877;51.992;4.504;2022-11-15T13:46:31;13.76;65.93
71177;DHT22;58877;51.992;4.504;2022-11-15T13:49:07;13.79;65.75
71177;DHT22;58877;51.992;4.504;2022-11-15T13:51:52;13.73;66.08
71177;DHT22;58877;51.992;4.504;2022-11-15T13:59:44;13.74;66.05
71177;DHT22;58877;51.992;4.504;2022-11-15T14:02:32;13.76;66.03
71177;DHT22;58877;51.992;4.504;2022-11-15T14:05:17;13.71;65.92
71177;DHT22;58877;51.992;4.504;2022-11-15T14:07:55;13.69;66.37
71177;DHT22;58877;51.992;4.504;2022-11-15T14:10:33;13.76;66.30
71177;DHT22;58877;51.992;4.504;2022-11-15T14:13:02;13.66;66.35
71177;DHT22;58877;51.992;4.504;2022-11-15T14:15:38;13.69;66.43
71177;DHT22;58877;51.992;4.504;2022-11-15T14:18:05;13.67;66.78
71177;DHT22;58877;51.992;4.504;2022-11-15T14:20:37;13.70;66.46
71177;DHT22;58877;51.992;4.504;2022-11-15T14:23:24;13.71;66.61
71177;DHT22;58877;51.992;4.504;2022-11-15T14:25:56;13.69;66.56
71177;DHT22;58877;51.992;4.504;2022-11-15T14:30:52;13.69;66.55
71177;DHT22;58877;51.992;4.504;2022-11-15T14:33:38;13.74;66.64
71177;DHT22;58877;51.992;4.504;2022-11-15T14:36:05;13.73;66.77
71177;DHT22;58877;51.992;4.504;2022-11-15T14:38:32;13.71;66.72
71177;DHT22;58877;51.992;4.504;2022-11-15T14:40:57;13.69;67.20
71177;DHT22;58877;51.992;4.504;2022-11-15T14:43:23;13.71;67.14
71177;DHT22;58877;51.992;4.504;2022-11-15T14:45:49;13.73;67.14
71177;DHT22;58877;51.992;4.504;2022-11-15T14:48:15;13.70;67.37
71177;DHT22;58877;51.992;4.504;2022-11-15T14:50:41;13.62;67.51
71177;DHT22;58877;51.992;4.504;2022-11-15T14:53:10;13.66;67.65
71177;DHT22;58877;51.992;4.504;2022-11-15T14:55:36;13.62;67.67
71177;DHT22;58877;51.992;4.504;2022-11-15T14:58:03;13.60;67.82
71177;DHT22;58877;51.992;4.504;2022-11-15T15:00:31;13.58;67.79
71177;DHT22;58877;51.992;4.504;2022-11-15T15:02:57;13.65;67.75
71177;DHT22;58877;51.992;4.504;2022-11-15T15:05:40;13.63;67.94
71177;DHT22;58877;51.992;4.504;2022-11-15T15:08:07;13.66;67.81
71177;DHT22;58877;51.992;4.504;2022-11-15T15:10:42;13.63;68.09
71177;DHT22;58877;51.992;4.504;2022-11-15T15:13:19;13.62;68.28
71177;DHT22;58877;51.992;4.504;2022-11-15T15:15:46;13.59;68.50
71177;DHT22;58877;51.992;4.504;2022-11-15T15:18:12;13.60;68.59
71177;DHT22;58877;51.992;4.504;2022-11-15T15:20:39;13.59;68.65
71177;DHT22;58877;51.992;4.504;2022-11-15T15:23:15;13.60;68.58
71177;DHT22;58877;51.992;4.504;2022-11-15T15:25:41;13.62;68.67
71177;DHT22;58877;51.992;4.504;2022-11-15T15:28:07;13.65;68.65
71177;DHT22;58877;51.992;4.504;2022-11-15T15:30:33;13.65;68.64
71177;DHT22;58877;51.992;4.504;2022-11-15T15:32:58;13.60;68.84
71177;DHT22;58877;51.992;4.504;2022-11-15T15:35:29;13.66;69.78
71177;DHT22;58877;51.992;4.504;2022-11-15T15:37:58;13.63;71.18
71177;DHT22;58877;51.992;4.504;2022-11-15T15:40:27;13.50;72.01
71177;DHT22;58877;51.992;4.504;2022-11-15T15:42:52;13.43;72.93
71177;DHT22;58877;51.992;4.504;2022-11-15T15:45:18;13.40;73.01
71177;DHT22;58877;51.992;4.504;2022-11-15T15:47:45;13.34;73.55
71177;DHT22;58877;51.992;4.504;2022-11-15T15:50:29;13.22;74.41
71177;DHT22;58877;51.992;4.504;2022-11-15T15:52:58;13.20;75.03
71177;DHT22;58877;51.992;4.504;2022-11-15T15:55:24;13.16;75.63
71177;DHT22;58877;51.992;4.504;2022-11-15T15:57:50;13.11;76.22
71177;DHT22;58877;51.992;4.504;2022-11-15T16:00:17;13.11;76.45
71177;DHT22;58877;51.992;4.504;2022-11-15T16:02:43;13.05;76.87
71177;DHT22;58877;51.992;4.504;2022-11-15T16:05:10;13.02;77.35
71177;DHT22;58877;51.992;4.504;2022-11-15T16:07:36;13.01;77.68
71177;DHT22;58877;51.992;4.504;2022-11-15T16:10:17;12.98;78.28
71177;DHT22;58877;51.992;4.504;2022-11-15T16:12:43;12.95;78.53
71177;DHT22;58877;51.992;4.504;2022-11-15T16:15:09;12.89;78.87
71177;DHT22;58877;51.992;4.504;2022-11-15T16:17:42;12.77;79.72
71177;DHT22;58877;51.992;4.504;2022-11-15T16:20:23;12.77;80.21
71177;DHT22;58877;51.992;4.504;2022-11-15T16:22:51;12.74;80.38
71177;DHT22;58877;51.992;4.504;2022-11-15T16:25:23;12.73;80.81
71177;DHT22;58877;51.992;4.504;2022-11-15T16:27:49;12.68;81.17
71177;DHT22;58877;51.992;4.504;2022-11-15T16:33:13;12.60;81.94
71177;DHT22;58877;51.992;4.504;2022-11-15T16:35:43;12.55;82.43
71177;DHT22;58877;51.992;4.504;2022-11-15T16:38:15;12.60;82.59
71177;DHT22;58877;51.992;4.504;2022-11-15T16:40:41;12.54;83.04
71177;DHT22;58877;51.992;4.504;2022-11-15T16:43:07;12.48;83.22
71177;DHT22;58877;51.992;4.504;2022-11-15T16:45:36;12.48;83.37
71177;DHT22;58877;51.992;4.504;2022-11-15T16:48:01;12.43;83.71
71177;DHT22;58877;51.992;4.504;2022-11-15T16:50:30;12.43;84.02
71177;DHT22;58877;51.992;4.504;2022-11-15T16:52:58;12.45;84.11
71177;DHT22;58877;51.992;4.504;2022-11-15T16:55:26;12.45;84.26
71177;DHT22;58877;51.992;4.504;2022-11-15T16:57:54;12.47;84.42
71177;DHT22;58877;51.992;4.504;2022-11-15T17:00:20;12.43;84.48
71177;DHT22;58877;51.992;4.504;2022-11-15T17:02:48;12.43;84.86
71177;DHT22;58877;51.992;4.504;2022-11-15T17:05:17;12.36;85.02
71177;DHT22;58877;51.992;4.504;2022-11-15T17:07:47;12.40;85.20
71177;DHT22;58877;51.992;4.504;2022-11-15T17:10:23;12.44;85.15
71177;DHT22;58877;51.992;4.504;2022-11-15T17:12:50;12.47;85.10
71177;DHT22;58877;51.992;4.504;2022-11-15T17:15:17;12.47;85.19
71177;DHT22;58877;51.992;4.504;2022-11-15T17:17:44;12.41;85.56
71177;DHT22;58877;51.992;4.504;2022-11-15T17:20:17;12.44;85.65
71177;DHT22;58877;51.992;4.504;2022-11-15T17:22:43;12.36;85.89
71177;DHT22;58877;51.992;4.504;2022-11-15T17:25:09;12.34;86.23
71177;DHT22;58877;51.992;4.504;2022-11-15T17:27:35;12.37;86.33
71177;DHT22;58877;51.992;4.504;2022-11-15T17:30:01;12.34;86.46
71177;DHT22;58877;51.992;4.504;2022-11-15T17:32:27;12.37;86.56
71177;DHT22;58877;51.992;4.504;2022-11-15T17:34:52;12.40;86.57
71177;DHT22;58877;51.992;4.504;2022-11-15T17:37:17;12.36;86.63